createdAt,value
2022-08-09T00:00:06.848Z,3.20
2022-08-09T00:02:37.816Z,3.42
2022-08-09T00:06:16.262Z,3.63
2022-08-09T00:08:04.048Z,3.88
2022-08-09T00:10:38.409Z,3.80
2022-08-09T00:13:17.040Z,3.25
2022-08-09T00:15:58.922Z,3.88
2022-08-09T00:18:36.308Z,3.78
2022-08-09T00:21:07.998Z,3.90
2022-08-09T00:23:56.008Z,3.50
2022-08-09T00:26:32.213Z,3.13
2022-08-09T00:29:01.876Z,3.45
2022-08-09T00:31:56.797Z,3.78
2022-08-09T00:34:19.127Z,3.75
2022-08-09T00:36:46.965Z,3.67
2022-08-09T00:40:12.838Z,3.67
2022-08-09T00:44:10.446Z,4.00
2022-08-09T00:44:53.594Z,3.53
2022-08-09T00:47:24.616Z,3.65
2022-08-09T00:49:56.358Z,3.22
2022-08-09T00:52:30.081Z,3.88
2022-08-09T00:55:00.456Z,3.90
2022-08-09T00:57:35.120Z,3.50
2022-08-09T01:00:21.952Z,4.18
2022-08-09T01:02:53.596Z,3.92
2022-08-09T01:05:22.002Z,4.05
2022-08-09T01:08:00.711Z,3.85
2022-08-09T01:10:28.912Z,3.63
2022-08-09T01:13:01.605Z,3.47
2022-08-09T01:15:31.389Z,3.80
2022-08-09T01:18:09.303Z,4.53
2022-08-09T01:20:59.556Z,4.20
2022-08-09T01:24:02.808Z,4.40
2022-08-09T01:26:26.172Z,4.03
2022-08-09T01:28:55.732Z,4.05
2022-08-09T01:32:28.199Z,4.10
2022-08-09T01:34:17.676Z,4.47
2022-08-09T01:36:45.787Z,4.50
2022-08-09T01:39:15.826Z,4.63
2022-08-09T01:41:55.495Z,4.30
2022-08-09T01:44:31.789Z,4.55
2022-08-09T01:47:00.893Z,4.45
2022-08-09T01:49:38.921Z,5.22
2022-08-09T01:52:10.924Z,4.80
2022-08-09T01:54:49.964Z,4.93
2022-08-09T01:59:51.951Z,4.93
2022-08-09T02:02:20.956Z,4.80
2022-08-09T02:04:50.328Z,5.65
2022-08-09T02:08:40.414Z,5.25
2022-08-09T02:10:12.836Z,5.75
2022-08-09T02:12:40.903Z,6.10
2022-08-09T02:15:11.824Z,5.40
2022-08-09T02:18:00.822Z,5.35
2022-08-09T02:20:35.036Z,6.07
2022-08-09T02:23:09.014Z,5.40
2022-08-09T02:25:42.562Z,5.53
2022-08-09T02:28:24.249Z,5.75
2022-08-09T02:30:54.701Z,6.20
2022-08-09T02:33:37.975Z,5.65
2022-08-09T02:36:17.457Z,6.05
2022-08-09T02:38:51.160Z,6.28
2022-08-09T02:41:23.065Z,5.93
2022-08-09T02:43:53.809Z,6.55
2022-08-09T02:46:23.804Z,6.28
2022-08-09T02:49:00.888Z,7.20
2022-08-09T02:51:37.011Z,6.57
2022-08-09T02:54:13.833Z,6.32
2022-08-09T02:56:42.681Z,5.75
2022-08-09T02:59:26.431Z,6.18
2022-08-09T03:02:12.298Z,5.88
2022-08-09T03:04:44.939Z,6.05
2022-08-09T03:07:15.358Z,6.38
2022-08-09T03:09:43.736Z,6.40
2022-08-09T03:12:22.976Z,5.88
2022-08-09T03:14:54.295Z,5.93
2022-08-09T03:17:27.026Z,5.80
2022-08-09T03:20:02.774Z,5.93
2022-08-09T03:22:34.411Z,5.75
2022-08-09T03:25:57.073Z,6.45
2022-08-09T03:28:00.614Z,5.75
2022-08-09T03:30:29.833Z,6.15
2022-08-09T03:33:02.037Z,5.43
2022-08-09T03:35:44.167Z,5.72
2022-08-09T03:38:28.879Z,6.38
2022-08-09T03:40:56.392Z,5.97
2022-08-09T03:43:23.463Z,5.70
2022-08-09T03:46:04.251Z,5.65
2022-08-09T03:48:42.953Z,5.82
2022-08-09T03:51:55.340Z,5.78
2022-08-09T03:54:11.370Z,6.30
2022-08-09T03:56:40.957Z,6.47
2022-08-09T03:59:17.190Z,6.57
2022-08-09T04:01:49.346Z,6.13
2022-08-09T04:04:17.027Z,6.38
2022-08-09T04:06:49.065Z,6.35
2022-08-09T04:09:47.520Z,6.25
2022-08-09T04:12:11.946Z,6.70
2022-08-09T04:15:01.403Z,6.45
2022-08-09T04:17:32.144Z,6.43
2022-08-09T04:20:02.379Z,6.68
2022-08-09T04:22:30.248Z,6.80
2022-08-09T04:25:03.029Z,6.45
2022-08-09T04:27:30.957Z,6.85
2022-08-09T04:30:00.012Z,6.55
2022-08-09T04:32:31.646Z,6.00
2022-08-09T04:35:04.120Z,6.45
2022-08-09T04:37:45.769Z,6.53
2022-08-09T04:40:19.639Z,6.65
2022-08-09T04:43:01.506Z,6.40
2022-08-09T04:45:36.005Z,6.38
2022-08-09T04:48:20.584Z,5.93
2022-08-09T04:50:50.094Z,6.40
2022-08-09T04:53:17.342Z,6.75
2022-08-09T04:55:58.010Z,6.50
2022-08-09T04:58:27.039Z,6.95
2022-08-09T05:00:54.526Z,6.88
2022-08-09T05:03:41.226Z,7.07
2022-08-09T05:06:09.524Z,6.95
2022-08-09T05:08:36.849Z,6.82
2022-08-09T05:11:07.498Z,6.97
2022-08-09T05:13:38.926Z,7.00
2022-08-09T05:16:06.626Z,7.03
2022-08-09T05:18:38.008Z,6.90
2022-08-09T05:21:22.745Z,6.93
2022-08-09T05:23:59.510Z,7.45
2022-08-09T05:26:45.683Z,7.82
2022-08-09T05:29:21.301Z,7.70
2022-08-09T05:31:57.399Z,7.43
2022-08-09T05:34:30.797Z,7.60
2022-08-09T05:37:04.914Z,7.67
2022-08-09T05:39:36.216Z,7.40
2022-08-09T05:42:10.244Z,7.50
2022-08-09T05:44:45.227Z,7.63
2022-08-09T05:47:17.706Z,7.72
2022-08-09T05:50:25.968Z,7.65
2022-08-09T05:52:32.019Z,7.80
2022-08-09T05:55:03.142Z,7.60
2022-08-09T05:57:55.758Z,7.70
2022-08-09T06:00:22.317Z,8.05
2022-08-09T06:02:53.959Z,7.55
2022-08-09T06:05:50.532Z,7.70
2022-08-09T06:08:11.667Z,8.23
2022-08-09T06:10:39.101Z,7.93
2022-08-09T06:13:18.467Z,8.15
2022-08-09T06:15:51.374Z,8.02
2022-08-09T06:18:18.973Z,8.47
2022-08-09T06:20:54.197Z,7.55
2022-08-09T06:23:22.162Z,7.95
2022-08-09T06:25:49.572Z,7.73
2022-08-09T06:28:22.422Z,7.60
2022-08-09T06:31:00.357Z,7.75
2022-08-09T06:33:39.979Z,7.72
2022-08-09T06:36:08.590Z,7.55
2022-08-09T06:38:37.361Z,7.33
2022-08-09T06:41:18.088Z,7.22
2022-08-09T06:43:47.858Z,7.25
2022-08-09T06:46:39.998Z,7.07
2022-08-09T06:49:02.833Z,7.75
2022-08-09T06:51:30.934Z,7.30
2022-08-09T06:54:00.704Z,7.78
2022-08-09T06:56:30.982Z,7.57
2022-08-09T07:00:50.575Z,7.47
2022-08-09T07:01:54.309Z,7.90
2022-08-09T07:04:26.981Z,7.18
2022-08-09T07:07:00.174Z,7.07
2022-08-09T07:09:55.924Z,6.97
2022-08-09T07:12:17.861Z,7.00
2022-08-09T07:14:51.380Z,6.70
2022-08-09T07:17:19.848Z,7.15
2022-08-09T07:19:47.991Z,6.75
2022-08-09T07:22:27.381Z,7.03
2022-08-09T07:25:05.086Z,7.00
2022-08-09T07:27:34.116Z,5.93
2022-08-09T07:30:09.827Z,6.45
2022-08-09T07:32:37.203Z,5.78
2022-08-09T07:35:11.429Z,5.47
2022-08-09T07:37:45.586Z,6.07
2022-08-09T07:40:18.657Z,5.45
2022-08-09T07:42:52.505Z,5.40
2022-08-09T07:45:38.348Z,5.40
2022-08-09T07:48:28.732Z,5.50
2022-08-09T07:51:09.396Z,5.40
2022-08-09T07:54:05.780Z,4.90
2022-08-09T07:56:33.807Z,5.30
2022-08-09T07:59:01.133Z,5.05
2022-08-09T08:01:34.307Z,4.57
2022-08-09T08:04:02.172Z,3.90
2022-08-09T08:06:32.017Z,3.95
2022-08-09T08:09:04.385Z,3.92
2022-08-09T08:12:10.283Z,4.07
2022-08-09T08:14:26.515Z,3.70
2022-08-09T08:17:07.355Z,3.78
2022-08-09T08:19:35.266Z,3.22
2022-08-09T08:22:02.982Z,2.90
2022-08-09T08:24:40.181Z,2.33
2022-08-09T08:27:16.638Z,2.38
2022-08-09T08:29:49.828Z,2.13
2022-08-09T08:32:24.160Z,1.92
2022-08-09T08:34:58.962Z,2.10
2022-08-09T08:37:41.226Z,2.20
2022-08-09T08:40:14.210Z,1.77
2022-08-09T08:42:47.369Z,1.90
2022-08-09T08:45:15.135Z,1.70
2022-08-09T08:47:45.152Z,1.90
2022-08-09T08:50:15.515Z,1.77
2022-08-09T08:52:57.492Z,1.88
2022-08-09T08:55:32.320Z,2.00
2022-08-09T08:57:59.479Z,1.50
2022-08-09T09:00:34.294Z,1.60
2022-08-09T09:03:08.888Z,1.43
2022-08-09T09:06:00.708Z,1.70
2022-08-09T09:08:41.085Z,1.55
2022-08-09T09:11:13.844Z,1.95
2022-08-09T09:13:57.103Z,1.85
2022-08-09T09:16:34.329Z,1.50
2022-08-09T09:19:37.714Z,1.30
2022-08-09T09:21:57.410Z,1.40
2022-08-09T09:24:33.150Z,1.40
2022-08-09T09:27:05.237Z,1.30
2022-08-09T09:29:46.046Z,1.30
2022-08-09T09:32:34.716Z,1.33
2022-08-09T09:35:07.589Z,1.20
2022-08-09T09:37:40.990Z,1.33
2022-08-09T09:40:11.880Z,1.40
2022-08-09T09:42:46.293Z,1.40
2022-08-09T09:45:26.139Z,1.42
2022-08-09T09:47:58.633Z,1.70
2022-08-09T09:50:50.520Z,1.67
2022-08-09T09:53:34.423Z,1.80
2022-08-09T09:56:31.211Z,1.75
2022-08-09T10:01:30.307Z,1.58
2022-08-09T10:04:09.553Z,1.40
2022-08-09T10:06:42.985Z,1.70
2022-08-09T10:09:22.602Z,1.52
2022-08-09T10:12:14.341Z,1.35
2022-08-09T10:14:53.657Z,1.35
2022-08-09T10:17:39.295Z,1.50
2022-08-09T10:20:27.068Z,1.55
2022-08-09T10:23:13.497Z,1.50
2022-08-09T10:26:07.839Z,1.67
2022-08-09T10:28:28.697Z,1.33
2022-08-09T10:34:08.545Z,1.40
2022-08-09T10:36:33.576Z,1.20
2022-08-09T10:39:02.925Z,1.50
2022-08-09T10:41:33.301Z,1.23
2022-08-09T10:44:07.533Z,6.30
2022-08-09T10:46:52.362Z,1.10
2022-08-09T10:49:42.485Z,0.95
2022-08-09T10:52:32.654Z,1.10
2022-08-09T10:55:19.709Z,1.70
2022-08-09T10:57:51.647Z,1.65
2022-08-09T11:00:41.651Z,1.40
2022-08-09T11:03:47.188Z,1.13
2022-08-09T11:06:20.888Z,1.20
2022-08-09T11:08:51.201Z,1.13
2022-08-09T11:11:20.416Z,0.98
2022-08-09T11:13:53.911Z,1.17
2022-08-09T11:16:35.683Z,1.05
2022-08-09T11:19:10.685Z,1.10
2022-08-09T11:21:57.192Z,1.10
2022-08-09T11:24:52.639Z,1.02
2022-08-09T11:28:04.367Z,1.00
2022-08-09T11:30:32.323Z,1.08
2022-08-09T11:33:03.918Z,0.90
2022-08-09T11:35:49.548Z,0.93
2022-08-09T11:38:22.010Z,0.82
2022-08-09T11:40:50.401Z,0.90
2022-08-09T11:43:27.995Z,0.70
2022-08-09T11:48:49.150Z,0.80
2022-08-09T11:51:19.730Z,1.00
2022-08-09T11:54:27.808Z,0.80
2022-08-09T11:57:16.945Z,0.80
2022-08-09T12:00:00.534Z,0.70
2022-08-09T12:02:51.044Z,0.70
2022-08-09T12:05:17.838Z,0.70
2022-08-09T12:07:58.755Z,0.95
2022-08-09T12:10:38.285Z,0.68
2022-08-09T12:14:07.234Z,0.82
2022-08-09T12:15:59.025Z,0.95
2022-08-09T12:18:29.971Z,1.00
2022-08-09T12:21:02.737Z,0.80
2022-08-09T12:23:56.619Z,0.70
2022-08-09T12:26:26.497Z,0.77
2022-08-09T12:29:14.150Z,0.90
2022-08-09T12:31:59.227Z,0.60
2022-08-09T12:34:49.236Z,0.70
2022-08-09T12:37:24.030Z,0.90
2022-08-09T12:40:05.829Z,0.70
2022-08-09T12:42:35.238Z,0.95
2022-08-09T12:45:03.159Z,0.80
2022-08-09T12:47:53.672Z,0.95
2022-08-09T12:50:23.779Z,0.80
2022-08-09T12:53:08.681Z,0.70
2022-08-09T12:56:14.665Z,0.80
2022-08-09T12:58:29.739Z,0.90
2022-08-09T13:00:57.664Z,0.68
2022-08-09T13:03:53.860Z,0.70
2022-08-09T13:06:34.797Z,0.73
2022-08-09T13:09:22.658Z,0.70
2022-08-09T13:11:52.406Z,0.80
2022-08-09T13:14:43.946Z,0.90
2022-08-09T13:17:16.125Z,0.90
2022-08-09T13:20:10.247Z,0.75
2022-08-09T13:23:05.164Z,0.80
2022-08-09T13:28:10.371Z,0.80
2022-08-09T13:30:50.471Z,0.90
2022-08-09T13:33:53.263Z,1.02
2022-08-09T13:36:24.550Z,0.75
2022-08-09T13:41:50.416Z,0.80
2022-08-09T13:42:03.625Z,0.70
2022-08-09T13:44:31.355Z,0.90
2022-08-09T13:47:26.788Z,0.80
2022-08-09T13:49:57.620Z,0.90
2022-08-09T13:52:28.727Z,0.85
2022-08-09T13:55:00.953Z,0.70
2022-08-09T13:57:39.917Z,0.80
2022-08-09T14:00:18.525Z,0.80
2022-08-09T14:03:04.201Z,0.90
2022-08-09T14:05:59.123Z,1.13
2022-08-09T14:08:24.737Z,0.80
2022-08-09T14:10:54.942Z,0.80
2022-08-09T14:14:16.390Z,0.80
2022-08-09T14:16:15.588Z,0.60
2022-08-09T14:18:45.248Z,0.65
2022-08-09T14:21:22.535Z,0.63
2022-08-09T14:23:55.455Z,1.00
2022-08-09T14:26:32.954Z,0.70
2022-08-09T14:29:08.186Z,0.70
2022-08-09T14:31:54.405Z,0.80
2022-08-09T14:34:31.778Z,0.90
2022-08-09T14:37:08.953Z,0.73
2022-08-09T14:39:40.407Z,0.60
2022-08-09T14:42:30.274Z,0.77
2022-08-09T14:45:00.853Z,0.82
2022-08-09T14:47:44.755Z,0.60
2022-08-09T14:50:15.996Z,0.88
2022-08-09T14:52:43.635Z,0.80
2022-08-09T14:55:19.898Z,0.90
2022-08-09T14:57:50.948Z,0.70
2022-08-09T15:00:18.776Z,0.75
2022-08-09T15:02:47.652Z,0.90
2022-08-09T15:05:26.116Z,0.80
2022-08-09T15:07:58.323Z,0.70
2022-08-09T15:10:26.283Z,0.82
2022-08-09T15:12:54.366Z,0.93
2022-08-09T15:15:21.930Z,0.82
2022-08-09T15:17:52.930Z,0.82
2022-08-09T15:21:58.873Z,0.75
2022-08-09T15:24:01.170Z,0.90
2022-08-09T15:25:58.857Z,0.80
2022-08-09T15:28:28.526Z,0.77
2022-08-09T15:31:09.908Z,0.75
2022-08-09T15:34:17.738Z,0.70
2022-08-09T15:36:29.083Z,1.00
2022-08-09T15:38:57.300Z,0.90
2022-08-09T15:41:31.377Z,0.70
2022-08-09T15:43:59.539Z,0.70
2022-08-09T15:46:32.943Z,0.88
2022-08-09T15:49:22.928Z,0.90
2022-08-09T15:52:05.197Z,0.82
2022-08-09T15:54:42.977Z,0.60
2022-08-09T15:57:18.792Z,0.80
2022-08-09T15:59:51.642Z,0.80
2022-08-09T16:02:27.153Z,0.90
2022-08-09T16:04:55.834Z,0.60
2022-08-09T16:07:23.027Z,0.80
2022-08-09T16:10:04.646Z,0.70
2022-08-09T16:12:34.958Z,0.70
2022-08-09T16:15:04.882Z,0.70
2022-08-09T16:17:51.944Z,0.70
2022-08-09T16:20:19.444Z,0.70
2022-08-09T16:22:57.555Z,0.80
2022-08-09T16:25:36.872Z,0.80
2022-08-09T16:28:07.930Z,0.80
2022-08-09T16:30:44.727Z,0.52
2022-08-09T16:33:15.731Z,0.70
2022-08-09T16:35:56.995Z,0.77
2022-08-09T16:38:29.718Z,0.57
2022-08-09T16:41:04.194Z,0.70
2022-08-09T16:43:51.595Z,0.80
2022-08-09T16:46:21.249Z,0.80
2022-08-09T16:48:59.504Z,0.82
2022-08-09T16:51:37.106Z,0.80
2022-08-09T16:54:27.700Z,0.80
2022-08-09T16:56:56.848Z,0.70
2022-08-09T16:59:34.817Z,0.88
2022-08-09T17:02:03.604Z,0.60
2022-08-09T17:04:34.486Z,0.80
2022-08-09T17:08:43.398Z,0.80
2022-08-09T17:10:04.162Z,0.52
2022-08-09T17:12:35.541Z,0.60
2022-08-09T17:15:31.408Z,0.90
2022-08-09T17:18:00.898Z,0.60
2022-08-09T17:20:37.397Z,1.17
2022-08-09T17:23:10.529Z,0.70
2022-08-09T17:25:42.122Z,1.70
2022-08-09T17:28:09.491Z,0.70
2022-08-09T17:30:37.396Z,0.80
2022-08-09T17:33:05.459Z,0.60
2022-08-09T17:35:48.880Z,0.95
2022-08-09T17:38:32.061Z,0.73
2022-08-09T17:41:00.978Z,0.90
2022-08-09T17:43:37.321Z,0.77
2022-08-09T17:46:07.533Z,1.00
2022-08-09T17:48:40.015Z,0.63
2022-08-09T17:51:18.721Z,0.70
2022-08-09T17:53:51.807Z,0.60
2022-08-09T17:56:27.218Z,0.80
2022-08-09T17:59:00.328Z,0.80
2022-08-09T18:02:03.636Z,0.70
2022-08-09T18:04:17.988Z,0.70
2022-08-09T18:06:54.342Z,0.70
2022-08-09T18:09:22.846Z,0.70
2022-08-09T18:12:14.625Z,0.88
2022-08-09T18:14:53.380Z,0.93
2022-08-09T18:17:27.174Z,0.85
2022-08-09T18:20:59.397Z,0.70
2022-08-09T18:23:04.709Z,0.70
2022-08-09T18:25:52.365Z,0.75
2022-08-09T18:30:35.827Z,0.68
2022-08-09T18:31:11.181Z,0.80
2022-08-09T18:33:40.386Z,0.80
2022-08-09T18:36:08.053Z,0.80
2022-08-09T18:39:02.287Z,0.73
2022-08-09T18:41:34.299Z,0.70
2022-08-09T18:44:03.274Z,0.60
2022-08-09T18:46:48.545Z,0.88
2022-08-09T18:49:41.479Z,0.82
2022-08-09T18:52:11.807Z,0.70
2022-08-09T18:54:53.488Z,0.77
2022-08-09T18:57:43.243Z,0.80
2022-08-09T19:00:19.184Z,0.90
2022-08-09T19:02:51.282Z,0.70
2022-08-09T19:05:28.951Z,1.50
2022-08-09T19:08:18.632Z,1.20
2022-08-09T19:10:50.674Z,1.20
2022-08-09T19:13:22.667Z,1.20
2022-08-09T19:16:07.601Z,1.20
2022-08-09T19:18:44.307Z,1.10
2022-08-09T19:21:12.922Z,1.23
2022-08-09T19:24:32.219Z,1.13
2022-08-09T19:26:32.430Z,1.08
2022-08-09T19:29:03.484Z,1.55
2022-08-09T19:31:45.242Z,1.40
2022-08-09T19:34:22.225Z,1.50
2022-08-09T19:36:51.475Z,1.30
2022-08-09T19:39:20.855Z,1.40
2022-08-09T19:41:56.769Z,1.55
2022-08-09T19:44:35.724Z,1.52
2022-08-09T19:47:05.375Z,1.13
2022-08-09T19:50:06.645Z,1.17
2022-08-09T19:52:20.990Z,1.73
2022-08-09T19:54:48.753Z,1.20
2022-08-09T19:57:17.279Z,1.55
2022-08-09T20:00:06.399Z,1.33
2022-08-09T20:04:12.329Z,1.40
2022-08-09T20:05:19.127Z,1.38
2022-08-09T20:07:58.916Z,1.20
2022-08-09T20:10:28.117Z,1.10
2022-08-09T20:13:02.970Z,1.98
2022-08-09T20:16:37.501Z,1.27
2022-08-09T20:18:27.825Z,1.30
2022-08-09T20:20:55.608Z,1.23
2022-08-09T20:23:23.822Z,1.20
2022-08-09T20:25:56.151Z,1.38
2022-08-09T20:28:31.998Z,1.42
2022-08-09T20:31:02.639Z,1.50
2022-08-09T20:33:41.326Z,1.50
2022-08-09T20:36:11.693Z,1.60
2022-08-09T20:39:04.604Z,1.55
2022-08-09T20:41:40.633Z,1.73
2022-08-09T20:44:09.981Z,1.95
2022-08-09T20:46:43.878Z,1.40
2022-08-09T20:49:16.758Z,1.15
2022-08-09T20:51:50.864Z,1.50
2022-08-09T20:54:19.184Z,1.63
2022-08-09T20:56:49.744Z,1.60
2022-08-09T21:05:51.901Z,1.40
2022-08-09T21:07:16.416Z,1.30
2022-08-09T21:09:56.311Z,1.20
2022-08-09T21:15:23.749Z,1.33
2022-08-09T21:18:21.067Z,1.60
2022-08-09T21:20:54.079Z,1.63
2022-08-09T21:23:26.595Z,1.58
2022-08-09T21:26:15.660Z,1.60
2022-08-09T21:28:55.654Z,1.75
2022-08-09T21:31:23.614Z,1.95
2022-08-09T21:33:56.685Z,1.92
2022-08-09T21:36:55.396Z,2.20
2022-08-09T21:39:28.239Z,2.15
2022-08-09T21:42:10.197Z,1.55
2022-08-09T21:44:38.217Z,1.88
2022-08-09T21:47:10.050Z,1.75
2022-08-09T21:52:18.522Z,1.80
2022-08-09T21:55:03.181Z,1.60
2022-08-09T21:57:39.142Z,1.40
2022-08-09T22:00:32.169Z,1.48
2022-08-09T22:03:06.001Z,1.48
2022-08-09T22:05:37.432Z,1.65
2022-08-09T22:08:12.812Z,1.50
2022-08-09T22:11:49.205Z,1.30
2022-08-09T22:13:34.826Z,1.30
2022-08-09T22:16:03.570Z,1.40
2022-08-09T22:18:33.035Z,1.80
2022-08-09T22:21:21.892Z,1.48
2022-08-09T22:24:01.245Z,1.30
2022-08-09T22:26:35.088Z,1.50
2022-08-09T22:29:10.031Z,1.42
2022-08-09T22:31:37.836Z,1.60
2022-08-09T22:34:09.732Z,1.60
2022-08-09T22:36:46.075Z,1.38
2022-08-09T22:41:54.644Z,1.42
2022-08-09T22:44:22.158Z,1.63
2022-08-09T22:48:15.792Z,1.30
2022-08-09T22:49:42.072Z,1.50
2022-08-09T22:52:09.188Z,1.30
2022-08-09T22:54:37.452Z,1.40
2022-08-09T22:57:04.676Z,1.40
2022-08-09T22:59:57.333Z,1.38
2022-08-09T23:02:24.858Z,1.52
2022-08-09T23:04:55.315Z,1.20
2022-08-09T23:08:23.129Z,1.30
2022-08-09T23:10:31.513Z,1.45
2022-08-09T23:12:58.874Z,1.10
2022-08-09T23:15:26.247Z,1.00
2022-08-09T23:17:54.351Z,1.08
2022-08-09T23:20:26.054Z,1.13
2022-08-09T23:22:53.283Z,1.05
2022-08-09T23:25:20.445Z,1.35
2022-08-09T23:28:09.331Z,1.10
2022-08-09T23:30:38.844Z,0.90
2022-08-09T23:33:06.938Z,1.42
2022-08-09T23:36:06.570Z,1.08
2022-08-09T23:38:22.563Z,1.20
2022-08-09T23:40:51.341Z,1.20
2022-08-09T23:43:19.374Z,1.20
2022-08-09T23:45:46.964Z,1.00
2022-08-09T23:48:16.271Z,1.10
2022-08-09T23:50:43.378Z,1.38
2022-08-09T23:53:12.959Z,1.52
2022-08-09T23:55:49.427Z,1.23
2022-08-09T23:58:27.588Z,1.35
